createdAt,value
2022-11-01T00:00:29.315Z,50.7
2022-11-01T00:01:45.541Z,51.8
2022-11-01T00:03:01.786Z,50.4
2022-11-01T00:04:18.018Z,53.8
2022-11-01T00:05:34.272Z,50.4
2022-11-01T00:06:49.510Z,51.5
2022-11-01T00:08:05.762Z,61.3
2022-11-01T00:09:21.999Z,52.5
2022-11-01T00:10:38.236Z,53.9
2022-11-01T00:11:54.467Z,54.1
2022-11-01T00:13:10.717Z,53.8
2022-11-01T00:14:26.963Z,56
2022-11-01T00:15:43.192Z,54.7
2022-11-01T00:16:59.430Z,53.3
2022-11-01T00:18:15.681Z,52.6
2022-11-01T00:19:31.902Z,53.1
2022-11-01T00:20:48.159Z,52.5
2022-11-01T00:22:04.387Z,53.6
2022-11-01T00:23:19.637Z,54.9
2022-11-01T00:24:35.883Z,53
2022-11-01T00:25:52.129Z,55.4
2022-11-01T00:27:08.372Z,55.1
2022-11-01T00:28:24.611Z,56.8
2022-11-01T00:29:40.844Z,53.3
2022-11-01T00:30:57.073Z,53.8
2022-11-01T00:32:13.328Z,56.2
2022-11-01T00:33:29.560Z,56.7
2022-11-01T00:34:45.803Z,55.2
2022-11-01T00:36:02.037Z,53
2022-11-01T00:37:18.277Z,54.3
2022-11-01T00:38:34.517Z,52.3
2022-11-01T00:39:49.770Z,54.1
2022-11-01T00:41:06.020Z,56.2
2022-11-01T00:42:22.245Z,53.3
2022-11-01T00:43:38.495Z,54.1
2022-11-01T00:44:54.740Z,52.8
2022-11-01T00:46:10.963Z,54.1
2022-11-01T00:47:27.213Z,54.9
2022-11-01T00:48:43.444Z,55.1
2022-11-01T00:49:59.684Z,55.1
2022-11-01T00:51:15.926Z,53
2022-11-01T00:52:32.176Z,54.6
2022-11-01T00:53:48.401Z,53
2022-11-01T00:55:04.651Z,53.1
2022-11-01T00:56:19.906Z,54.6
2022-11-01T00:57:36.147Z,54.1
2022-11-01T00:58:52.386Z,56.5
2022-11-01T01:00:08.634Z,53
2022-11-01T01:01:24.861Z,54.1
2022-11-01T01:02:41.110Z,58
2022-11-01T01:03:57.341Z,55.5
2022-11-01T01:05:13.592Z,54.1
2022-11-01T01:06:29.823Z,53.8
2022-11-01T01:07:46.059Z,55.5
2022-11-01T01:09:02.295Z,54.7
2022-11-01T01:10:18.543Z,62
2022-11-01T01:11:34.780Z,59.2
2022-11-01T01:12:50.034Z,57.6
2022-11-01T01:14:06.277Z,56.7
2022-11-01T01:15:22.523Z,56.7
2022-11-01T01:16:38.751Z,60.2
2022-11-01T01:17:54.995Z,54.9
2022-11-01T01:19:11.233Z,55.5
2022-11-01T01:20:27.465Z,55.4
2022-11-01T01:21:43.711Z,57.2
2022-11-01T01:22:59.964Z,56.7
2022-11-01T01:24:16.180Z,56.7
2022-11-01T01:25:32.431Z,58.9
2022-11-01T01:26:48.660Z,54.1
2022-11-01T01:28:04.914Z,52
2022-11-01T01:29:20.161Z,50.4
2022-11-01T01:30:36.405Z,55.4
2022-11-01T01:31:52.642Z,54.1
2022-11-01T01:33:08.896Z,55.7
2022-11-01T01:34:25.128Z,54.6
2022-11-01T01:35:41.363Z,51.8
2022-11-01T01:36:56.625Z,52.2
2022-11-01T01:38:12.861Z,56.2
2022-11-01T01:39:29.091Z,55.4
2022-11-01T01:40:45.353Z,52.5
2022-11-01T01:42:01.583Z,57.3
2022-11-01T01:43:17.822Z,56.2
2022-11-01T01:44:34.060Z,56
2022-11-01T01:45:50.307Z,55.5
2022-11-01T01:47:06.543Z,56.7
2022-11-01T01:48:22.775Z,54.6
2022-11-01T01:49:39.031Z,57.5
2022-11-01T01:50:55.249Z,58.9
2022-11-01T01:52:11.489Z,56.2
2022-11-01T01:53:26.745Z,53.4
2022-11-01T01:54:42.992Z,55.5
2022-11-01T01:55:59.248Z,54.4
2022-11-01T01:57:15.473Z,52
2022-11-01T01:58:31.729Z,55.2
2022-11-01T01:59:47.956Z,56.7
2022-11-01T02:01:04.195Z,56.5
2022-11-01T02:02:20.437Z,58.9
2022-11-01T02:03:36.666Z,56.5
2022-11-01T02:04:52.905Z,55.9
2022-11-01T02:06:09.140Z,57.6
2022-11-01T02:07:25.382Z,57.5
2022-11-01T02:08:41.619Z,53.4
2022-11-01T02:09:56.876Z,58
2022-11-01T02:11:13.122Z,58.4
2022-11-01T02:12:29.369Z,59.6
2022-11-01T02:13:45.600Z,58.3
2022-11-01T02:15:01.857Z,59.7
2022-11-01T02:16:18.078Z,57.8
2022-11-01T02:17:34.311Z,56.8
2022-11-01T02:18:50.569Z,60.2
2022-11-01T02:20:06.804Z,56.2
2022-11-01T02:21:23.044Z,54.1
2022-11-01T02:22:39.273Z,56.5
2022-11-01T02:23:55.524Z,60.2
2022-11-01T02:25:11.753Z,55.5
2022-11-01T02:26:27.010Z,56.5
2022-11-01T02:27:43.252Z,59.7
2022-11-01T02:28:59.499Z,58
2022-11-01T02:30:15.732Z,57.2
2022-11-01T02:31:31.970Z,57.6
2022-11-01T02:32:48.210Z,58.4
2022-11-01T02:34:04.458Z,58.9
2022-11-01T02:35:20.694Z,60.5
2022-11-01T02:36:36.929Z,60.5
2022-11-01T02:37:53.172Z,61.7
2022-11-01T02:39:09.407Z,58.9
2022-11-01T02:40:25.650Z,60.9
2022-11-01T02:41:41.880Z,58.1
2022-11-01T02:42:57.139Z,59.4
2022-11-01T02:44:13.389Z,59.4
2022-11-01T02:45:29.631Z,58.8
2022-11-01T02:48:02.103Z,60.9
2022-11-01T02:49:18.344Z,65.2
2022-11-01T02:50:34.589Z,63.4
2022-11-01T02:51:50.826Z,63.1
2022-11-01T02:53:07.056Z,62.1
2022-11-01T02:54:23.303Z,61
2022-11-01T02:55:39.534Z,56.5
2022-11-01T02:56:55.777Z,55.1
2022-11-01T02:58:12.010Z,56.3
2022-11-01T02:59:27.280Z,59.2
2022-11-01T03:00:43.519Z,58.9
2022-11-01T03:01:59.758Z,58.1
2022-11-01T03:03:15.990Z,59.4
2022-11-01T03:04:32.233Z,58
2022-11-01T03:05:48.475Z,56.7
2022-11-01T03:07:04.720Z,63
2022-11-01T03:08:20.942Z,59.9
2022-11-01T03:09:37.196Z,58.9
2022-11-01T03:10:53.431Z,61.2
2022-11-01T03:12:09.665Z,60.9
2022-11-01T03:13:25.912Z,61.5
2022-11-01T03:14:42.154Z,59.7
2022-11-01T03:15:57.404Z,59.1
2022-11-01T03:17:13.651Z,60.5
2022-11-01T03:18:29.878Z,62.1
2022-11-01T03:19:46.130Z,61
2022-11-01T03:21:02.362Z,61.2
2022-11-01T03:22:18.605Z,62.6
2022-11-01T03:23:34.849Z,58.6
2022-11-01T03:24:51.085Z,62.3
2022-11-01T03:26:07.329Z,63.3
2022-11-01T03:27:23.571Z,62.5
2022-11-01T03:28:39.800Z,59.4
2022-11-01T03:29:56.038Z,61.8
2022-11-01T03:31:12.271Z,63
2022-11-01T03:32:27.526Z,61.2
2022-11-01T03:33:43.778Z,60.4
2022-11-01T03:35:00.007Z,67
2022-11-01T03:36:16.258Z,59.1
2022-11-01T03:37:32.496Z,59.9
2022-11-01T03:38:48.738Z,60.7
2022-11-01T03:40:04.963Z,62.3
2022-11-01T03:41:21.216Z,60.2
2022-11-01T03:42:37.445Z,60.9
2022-11-01T03:43:53.694Z,62.1
2022-11-01T03:45:09.929Z,59.7
2022-11-01T03:46:26.181Z,59.7
2022-11-01T03:47:42.401Z,58.4
2022-11-01T03:48:57.666Z,61.8
2022-11-01T03:50:13.905Z,61
2022-11-01T03:51:30.137Z,60.2
2022-11-01T03:52:46.379Z,59.7
2022-11-01T03:54:02.630Z,59.6
2022-11-01T03:55:18.866Z,57
2022-11-01T03:56:35.093Z,62
2022-11-01T03:57:51.350Z,60.7
2022-11-01T03:59:07.586Z,59.7
2022-11-01T04:00:23.828Z,60.5
2022-11-01T04:01:40.073Z,57.2
2022-11-01T04:02:56.303Z,59.2
2022-11-01T04:04:12.541Z,60.2
2022-11-01T04:05:27.792Z,60.4
2022-11-01T04:06:44.034Z,60.2
2022-11-01T04:08:00.284Z,61.5
2022-11-01T04:09:16.514Z,62
2022-11-01T04:10:32.767Z,62.8
2022-11-01T04:11:48.991Z,61.7
2022-11-01T04:13:05.245Z,59.6
2022-11-01T04:14:21.463Z,59.6
2022-11-01T04:15:37.706Z,61.7
2022-11-01T04:16:53.962Z,60.2
2022-11-01T04:18:10.203Z,59.7
2022-11-01T04:19:26.425Z,60.7
2022-11-01T04:20:42.661Z,59.7
2022-11-01T04:21:57.929Z,58.9
2022-11-01T04:23:14.164Z,58.6
2022-11-01T04:24:30.400Z,60.2
2022-11-01T04:25:46.650Z,59.4
2022-11-01T04:27:02.878Z,59.7
2022-11-01T04:28:19.131Z,59.7
2022-11-01T04:29:35.353Z,59.9
2022-11-01T04:30:51.599Z,59.1
2022-11-01T04:32:07.850Z,58.8
2022-11-01T04:33:24.077Z,59.7
2022-11-01T04:34:40.315Z,60.4
2022-11-01T04:35:56.566Z,59.9
2022-11-01T04:37:12.810Z,61.8
2022-11-01T04:38:28.059Z,59.4
2022-11-01T04:39:44.301Z,60.4
2022-11-01T04:41:00.540Z,61.5
2022-11-01T04:42:16.777Z,59.1
2022-11-01T04:43:33.019Z,60.1
2022-11-01T04:44:49.262Z,59.4
2022-11-01T04:46:05.490Z,60.9
2022-11-01T04:47:21.723Z,60.7
2022-11-01T04:48:37.981Z,63.1
2022-11-01T04:49:54.202Z,61
2022-11-01T04:51:10.459Z,61.8
2022-11-01T04:52:26.690Z,60.5
2022-11-01T04:53:42.936Z,59.6
2022-11-01T04:54:58.186Z,61.5
2022-11-01T04:56:14.426Z,63.1
2022-11-01T04:57:30.669Z,60.7
2022-11-01T04:58:46.904Z,63.3
2022-11-01T05:00:03.144Z,61.5
2022-11-01T05:01:19.372Z,61
2022-11-01T05:02:35.624Z,60.7
2022-11-01T05:03:51.853Z,61.8
2022-11-01T05:05:08.092Z,59.4
2022-11-01T05:06:24.343Z,62
2022-11-01T05:07:40.582Z,61.8
2022-11-01T05:08:56.813Z,61.7
2022-11-01T05:10:13.063Z,62.1
2022-11-01T05:11:28.325Z,60.7
2022-11-01T05:12:44.549Z,60.1
2022-11-01T05:14:00.808Z,61.7
2022-11-01T05:15:17.031Z,61.5
2022-11-01T05:16:33.270Z,60.7
2022-11-01T05:17:49.516Z,60.2
2022-11-01T05:19:05.751Z,61
2022-11-01T05:20:21.993Z,61.5
2022-11-01T05:21:38.235Z,62.1
2022-11-01T05:22:54.465Z,60.7
2022-11-01T05:24:10.708Z,61.2
2022-11-01T05:25:26.951Z,60.5
2022-11-01T05:26:43.191Z,60.7
2022-11-01T05:27:58.440Z,64.1
2022-11-01T05:29:14.692Z,61
2022-11-01T05:30:30.924Z,61.7
2022-11-01T05:31:47.166Z,62
2022-11-01T05:33:03.399Z,61.7
2022-11-01T05:34:19.644Z,62.1
2022-11-01T05:35:35.874Z,60.9
2022-11-01T05:36:52.111Z,63.6
2022-11-01T05:38:08.376Z,62.5
2022-11-01T05:39:24.605Z,62.1
2022-11-01T05:40:40.837Z,62.1
2022-11-01T05:41:57.071Z,63
2022-11-01T05:43:13.307Z,61.2
2022-11-01T05:44:28.566Z,60.1
2022-11-01T05:45:44.821Z,63.8
2022-11-01T05:47:01.045Z,63.1
2022-11-01T05:48:17.281Z,61.8
2022-11-01T05:49:33.542Z,62.1
2022-11-01T05:50:49.772Z,63.3
2022-11-01T05:52:05.039Z,61.3
2022-11-01T05:53:21.271Z,63.9
2022-11-01T05:54:37.502Z,62
2022-11-01T05:55:53.751Z,63.4
2022-11-01T05:57:09.983Z,62.1
2022-11-01T05:58:26.235Z,62.8
2022-11-01T05:59:42.462Z,62.8
2022-11-01T06:00:58.703Z,62.8
2022-11-01T06:02:14.938Z,63.1
2022-11-01T06:03:31.191Z,63.8
2022-11-01T06:04:47.441Z,63.3
2022-11-01T06:06:03.665Z,61.5
2022-11-01T06:07:19.909Z,62.8
2022-11-01T06:08:35.149Z,61.7
2022-11-01T06:09:51.388Z,61.5
2022-11-01T06:11:07.630Z,61.5
2022-11-01T06:12:23.866Z,63
2022-11-01T06:13:40.122Z,61.8
2022-11-01T06:14:56.354Z,62.5
2022-11-01T06:16:12.592Z,61.8
2022-11-01T06:17:28.852Z,62.5
2022-11-01T06:18:45.069Z,61
2022-11-01T06:20:01.321Z,61.2
2022-11-01T06:21:17.557Z,63
2022-11-01T06:22:33.783Z,65.9
2022-11-01T06:23:50.049Z,60.9
2022-11-01T06:25:05.279Z,61
2022-11-01T06:26:21.531Z,62.8
2022-11-01T06:27:37.767Z,60.7
2022-11-01T06:28:54.009Z,61.3
2022-11-01T06:30:10.254Z,61.2
2022-11-01T06:31:26.489Z,61
2022-11-01T06:32:42.726Z,61.8
2022-11-01T06:33:58.974Z,62
2022-11-01T06:35:15.217Z,60.2
2022-11-01T06:36:31.441Z,61.5
2022-11-01T06:37:47.674Z,61.2
2022-11-01T06:39:03.935Z,61.2
2022-11-01T06:40:20.161Z,62.5
2022-11-01T06:41:35.409Z,61.3
2022-11-01T06:42:51.658Z,62
2022-11-01T06:45:24.148Z,60.4
2022-11-01T06:46:40.390Z,61.8
2022-11-01T06:47:56.618Z,61.8
2022-11-01T06:49:12.852Z,61
2022-11-01T06:50:29.088Z,62.8
2022-11-01T06:51:45.335Z,62.3
2022-11-01T06:53:01.572Z,59.1
2022-11-01T06:54:17.810Z,60.7
2022-11-01T06:55:34.050Z,62
2022-11-01T06:56:50.288Z,60.9
2022-11-01T06:58:05.542Z,61.5
2022-11-01T06:59:21.791Z,59.7
2022-11-01T07:00:38.034Z,61.8
2022-11-01T07:01:54.269Z,59.9
2022-11-01T07:03:10.494Z,58.1
2022-11-01T07:04:26.741Z,58.4
2022-11-01T07:05:42.982Z,59.7
2022-11-01T07:06:59.230Z,59.4
2022-11-01T07:08:15.458Z,60.2
2022-11-01T07:09:31.694Z,58.1
2022-11-01T07:10:47.933Z,60.2
2022-11-01T07:12:04.175Z,58.9
2022-11-01T07:13:20.412Z,59.7
2022-11-01T07:14:35.684Z,59.6
2022-11-01T07:15:51.916Z,58.3
2022-11-01T07:17:08.151Z,60.7
2022-11-01T07:18:24.386Z,59.4
2022-11-01T07:19:40.633Z,60.1
2022-11-01T07:20:56.868Z,60.1
2022-11-01T07:22:13.111Z,59.2
2022-11-01T07:23:29.359Z,60.4
2022-11-01T07:24:45.592Z,58.9
2022-11-01T07:26:01.827Z,59.7
2022-11-01T07:27:18.070Z,58.6
2022-11-01T07:28:34.308Z,58.3
2022-11-01T07:29:50.551Z,59.4
2022-11-01T07:31:05.806Z,60.2
2022-11-01T07:32:22.041Z,62.6
2022-11-01T07:33:38.283Z,59.6
2022-11-01T07:34:54.512Z,58.8
2022-11-01T07:36:10.758Z,58.1
2022-11-01T07:37:26.997Z,57.6
2022-11-01T07:38:43.233Z,59.4
2022-11-01T07:39:59.487Z,57.5
2022-11-01T07:41:15.711Z,56.7
2022-11-01T07:42:31.950Z,60.1
2022-11-01T07:43:48.204Z,58.1
2022-11-01T07:45:04.441Z,59.7
2022-11-01T07:46:20.685Z,58.6
2022-11-01T07:47:35.942Z,56.3
2022-11-01T07:48:52.177Z,58.1
2022-11-01T07:50:08.410Z,58.1
2022-11-01T07:51:24.655Z,58.1
2022-11-01T07:52:40.898Z,57.8
2022-11-01T07:53:57.127Z,58.3
2022-11-01T07:55:13.367Z,57.3
2022-11-01T07:56:29.604Z,59.2
2022-11-01T07:57:45.855Z,56.8
2022-11-01T07:59:02.079Z,58.6
2022-11-01T08:00:18.330Z,57.6
2022-11-01T08:01:34.556Z,56.3
2022-11-01T08:02:50.811Z,59.7
2022-11-01T08:04:06.069Z,56.8
2022-11-01T08:05:22.292Z,56.5
2022-11-01T08:06:38.532Z,56.5
2022-11-01T08:07:54.768Z,57
2022-11-01T08:09:11.007Z,57.3
2022-11-01T08:10:27.256Z,57.6
2022-11-01T08:11:43.489Z,57.2
2022-11-01T08:12:59.737Z,57.6
2022-11-01T08:14:15.972Z,58.3
2022-11-01T08:15:32.224Z,58
2022-11-01T08:16:48.449Z,56.8
2022-11-01T08:18:04.702Z,60.2
2022-11-01T08:19:20.929Z,57.2
2022-11-01T08:20:36.192Z,57
2022-11-01T08:21:52.442Z,56.7
2022-11-01T08:23:08.668Z,56.5
2022-11-01T08:24:24.911Z,57
2022-11-01T08:25:41.141Z,56.3
2022-11-01T08:26:57.390Z,58.1
2022-11-01T08:28:13.624Z,56.3
2022-11-01T08:29:29.854Z,58.1
2022-11-01T08:30:46.093Z,58
2022-11-01T08:32:02.333Z,56.7
2022-11-01T08:33:18.580Z,57.2
2022-11-01T08:34:34.825Z,55.2
2022-11-01T08:35:51.057Z,56.8
2022-11-01T08:37:06.322Z,57
2022-11-01T08:38:22.560Z,56.5
2022-11-01T08:39:38.802Z,56.7
2022-11-01T08:40:55.039Z,55.2
2022-11-01T08:42:11.275Z,57.3
2022-11-01T08:43:27.502Z,56
2022-11-01T08:44:43.746Z,58
2022-11-01T08:45:59.980Z,56.3
2022-11-01T08:47:16.229Z,57.6
2022-11-01T08:48:32.477Z,58.4
2022-11-01T08:49:48.701Z,57.2
2022-11-01T08:51:04.947Z,58.3
2022-11-01T08:52:21.185Z,56
2022-11-01T08:53:37.417Z,56.7
2022-11-01T08:54:52.672Z,56.3
2022-11-01T08:56:08.919Z,56.8
2022-11-01T08:57:25.169Z,56.5
2022-11-01T08:58:41.392Z,57.2
2022-11-01T08:59:57.633Z,57.5
2022-11-01T09:01:13.887Z,56.2
2022-11-01T09:02:30.123Z,58.3
2022-11-01T09:03:46.358Z,56.8
2022-11-01T09:05:02.587Z,58.1
2022-11-01T09:06:18.824Z,55.4
2022-11-01T09:07:35.081Z,56.7
2022-11-01T09:10:07.543Z,56.7
2022-11-01T09:11:22.812Z,58.3
2022-11-01T09:12:39.038Z,58.8
2022-11-01T09:13:55.296Z,56
2022-11-01T09:15:11.533Z,59.4
2022-11-01T09:16:27.755Z,56
2022-11-01T09:17:44.011Z,56.5
2022-11-01T09:19:00.247Z,58
2022-11-01T09:20:16.485Z,56.5
2022-11-01T09:21:32.714Z,56.7
2022-11-01T09:22:48.960Z,57.6
2022-11-01T09:24:05.200Z,55.9
2022-11-01T09:25:21.442Z,55.4
2022-11-01T09:26:37.680Z,55.1
2022-11-01T09:27:52.947Z,55.1
2022-11-01T09:29:09.178Z,53.9
2022-11-01T09:30:25.411Z,55.4
2022-11-01T09:31:41.649Z,56.8
2022-11-01T09:32:57.896Z,56.2
2022-11-01T09:34:14.134Z,56.5
2022-11-01T09:35:30.370Z,56.8
2022-11-01T09:36:46.605Z,54.7
2022-11-01T09:38:02.854Z,56.2
2022-11-01T09:39:19.097Z,55.1
2022-11-01T09:40:35.326Z,54.7
2022-11-01T09:41:51.565Z,56
2022-11-01T09:43:07.804Z,52.5
2022-11-01T09:44:23.069Z,56.2
2022-11-01T09:45:39.294Z,61.2
2022-11-01T09:46:55.547Z,54.1
2022-11-01T09:48:11.775Z,53
2022-11-01T09:49:28.030Z,54.7
2022-11-01T09:50:44.267Z,54.6
2022-11-01T09:52:00.504Z,55.5
2022-11-01T09:53:16.730Z,55.5
2022-11-01T09:54:32.971Z,55.5
2022-11-01T09:55:49.213Z,55.2
2022-11-01T09:57:05.458Z,55.4
2022-11-01T09:58:21.684Z,53.6
2022-11-01T09:59:37.924Z,55.1
2022-11-01T10:00:53.199Z,56.7
2022-11-01T10:02:09.431Z,56.2
2022-11-01T10:03:25.655Z,56.3
2022-11-01T10:04:41.904Z,54.6
2022-11-01T10:05:58.141Z,55.5
2022-11-01T10:07:13.396Z,53.9
2022-11-01T10:08:29.634Z,54.9
2022-11-01T10:09:45.884Z,53.1
2022-11-01T10:11:02.116Z,56.7
2022-11-01T10:12:18.367Z,55.5
2022-11-01T10:13:34.597Z,56.8
2022-11-01T10:14:50.844Z,55.1
2022-11-01T10:16:07.078Z,56
2022-11-01T10:17:23.327Z,55.5
2022-11-01T10:18:39.553Z,56.3
2022-11-01T10:19:55.813Z,55.4
2022-11-01T10:21:12.036Z,55.1
2022-11-01T10:22:28.269Z,54.6
2022-11-01T10:23:43.000Z,56.8
2022-11-01T10:24:59.767Z,56.5
2022-11-01T10:26:16.003Z,54.6
2022-11-01T10:27:32.254Z,54.1
2022-11-01T10:28:48.489Z,54.4
2022-11-01T10:30:04.727Z,53.8
2022-11-01T10:31:20.964Z,53.6
2022-11-01T10:32:37.202Z,53.9
2022-11-01T10:33:53.456Z,53.4
2022-11-01T10:35:09.687Z,52.5
2022-11-01T10:36:25.922Z,52.8
2022-11-01T10:37:42.161Z,53.4
2022-11-01T10:38:58.390Z,52.8
2022-11-01T10:40:13.662Z,53.4
2022-11-01T10:41:29.897Z,52.5
2022-11-01T10:42:46.131Z,52
2022-11-01T10:44:02.384Z,54.9
2022-11-01T10:45:18.614Z,55.1
2022-11-01T10:46:34.861Z,51.7
2022-11-01T10:47:51.089Z,53.6
2022-11-01T10:49:07.345Z,53.6
2022-11-01T10:50:23.564Z,53.3
2022-11-01T10:51:39.802Z,53.4
2022-11-01T10:52:56.058Z,53.8
2022-11-01T10:54:12.294Z,53.3
2022-11-01T10:55:28.531Z,54.9
2022-11-01T10:56:43.774Z,55.9
2022-11-01T10:58:00.000Z,54.7
2022-11-01T10:59:16.250Z,53.4
2022-11-01T11:00:32.498Z,54.6
2022-11-01T11:01:48.719Z,55.1
2022-11-01T11:03:04.980Z,53.8
2022-11-01T11:04:21.208Z,53.3
2022-11-01T11:05:37.446Z,54.4
2022-11-01T11:06:53.697Z,53.6
2022-11-01T11:08:09.936Z,52.3
2022-11-01T11:09:26.159Z,54.9
2022-11-01T11:10:42.388Z,52.6
2022-11-01T11:13:14.895Z,52
2022-11-01T11:14:30.147Z,51.2
2022-11-01T11:15:46.375Z,54.7
2022-11-01T11:17:02.606Z,54.3
2022-11-01T11:18:18.852Z,53.6
2022-11-01T11:19:35.098Z,52.8
2022-11-01T11:20:51.335Z,53.1
2022-11-01T11:22:07.572Z,52.5
2022-11-01T11:23:23.813Z,53.4
2022-11-01T11:24:40.059Z,52.5
2022-11-01T11:25:56.297Z,54.1
2022-11-01T11:27:12.513Z,53.9
2022-11-01T11:28:28.783Z,51.8
2022-11-01T11:29:44.994Z,54.1
2022-11-01T11:31:00.264Z,53.3
2022-11-01T11:32:16.494Z,57.6
2022-11-01T11:33:32.757Z,53.3
2022-11-01T11:34:48.975Z,52.8
2022-11-01T11:36:05.200Z,50.4
2022-11-01T11:37:21.458Z,51.5
2022-11-01T11:38:37.703Z,51.4
2022-11-01T11:39:53.950Z,54.1
2022-11-01T11:41:10.192Z,53
2022-11-01T11:42:26.413Z,52.5
2022-11-01T11:43:42.655Z,53.4
2022-11-01T11:44:58.892Z,51.5
2022-11-01T11:46:15.139Z,52.8
2022-11-01T11:47:30.383Z,53.1
2022-11-01T11:48:46.000Z,53.8
2022-11-01T11:50:02.863Z,52.2
2022-11-01T11:51:19.093Z,57.2
2022-11-01T11:52:35.349Z,52
2022-11-01T11:53:51.584Z,51.2
2022-11-01T11:55:07.834Z,52.3
2022-11-01T11:56:24.073Z,50.1
2022-11-01T11:57:40.305Z,51.4
2022-11-01T11:58:56.541Z,51.2
2022-11-01T12:00:12.780Z,51.2
2022-11-01T12:01:29.018Z,52.6
2022-11-01T12:02:45.265Z,51.4
2022-11-01T12:04:00.519Z,52.2
2022-11-01T12:05:16.754Z,51.7
2022-11-01T12:06:32.993Z,51.7
2022-11-01T12:07:49.228Z,52
2022-11-01T12:09:05.468Z,50.5
2022-11-01T12:10:21.726Z,49.4
2022-11-01T12:11:37.950Z,52.5
2022-11-01T12:12:54.198Z,50.7
2022-11-01T12:14:10.426Z,51.5
2022-11-01T12:15:26.650Z,50.4
2022-11-01T12:16:42.907Z,50.2
2022-11-01T12:17:59.150Z,50.4
2022-11-01T12:19:15.388Z,51.5
2022-11-01T12:20:30.641Z,50.7
2022-11-01T12:21:46.882Z,52.5
2022-11-01T12:23:03.130Z,52.2
2022-11-01T12:24:19.341Z,50.4
2022-11-01T12:25:35.578Z,52.8
2022-11-01T12:26:51.839Z,51.5
2022-11-01T12:28:08.079Z,51.2
2022-11-01T12:29:24.326Z,52.2
2022-11-01T12:30:40.565Z,50.4
2022-11-01T12:31:56.801Z,50.2
2022-11-01T12:37:01.764Z,52.6
2022-11-01T12:39:33.256Z,51
2022-11-01T12:40:48.518Z,49.6
2022-11-01T12:42:03.761Z,51.4
2022-11-01T12:43:19.003Z,53.9
2022-11-01T12:44:34.286Z,50.7
2022-11-01T12:45:49.523Z,53.1
2022-11-01T12:47:04.794Z,51
2022-11-01T12:48:21.037Z,51.8
2022-11-01T12:49:37.286Z,51.4
2022-11-01T12:50:53.511Z,51.2
2022-11-01T12:52:09.757Z,52.2
2022-11-01T12:53:25.992Z,52.5
2022-11-01T12:54:42.235Z,51.7
2022-11-01T12:55:58.476Z,50.4
2022-11-01T12:57:14.711Z,51.5
2022-11-01T12:58:30.933Z,53.4
2022-11-01T12:59:46.187Z,51.8
2022-11-01T13:01:01.470Z,50.9
2022-11-01T13:02:17.717Z,54.7
2022-11-01T13:03:33.950Z,52
2022-11-01T13:04:50.173Z,52.8
2022-11-01T13:06:06.439Z,55.1
2022-11-01T13:07:22.656Z,54.3
2022-11-01T13:08:38.899Z,61.7
2022-11-01T13:09:55.150Z,58.4
2022-11-01T13:11:11.382Z,58.8
2022-11-01T13:12:27.626Z,54.6
2022-11-01T13:13:43.866Z,57.6
2022-11-01T13:15:00.079Z,54.6
2022-11-01T13:16:16.338Z,54.6
2022-11-01T13:21:20.314Z,60.2
2022-11-01T13:22:35.582Z,59.7
2022-11-01T13:23:50.800Z,53.1
2022-11-01T13:25:07.044Z,58.8
2022-11-01T13:26:23.307Z,54.4
2022-11-01T13:27:39.527Z,54.9
2022-11-01T13:28:55.779Z,57.2
2022-11-01T13:30:12.023Z,59.7
2022-11-01T13:31:28.271Z,60.1
2022-11-01T13:32:44.505Z,55.5
2022-11-01T13:34:00.740Z,60.5
2022-11-01T13:35:16.979Z,58.3
2022-11-01T13:36:32.241Z,61.5
2022-11-01T13:37:47.505Z,60.7
2022-11-01T13:39:02.764Z,57.2
2022-11-01T13:40:18.011Z,54.1
2022-11-01T13:41:33.252Z,53.3
2022-11-01T13:42:48.519Z,54.3
2022-11-01T13:44:04.766Z,52.5
2022-11-01T13:45:20.989Z,53
2022-11-01T13:46:37.254Z,53.1
2022-11-01T13:47:53.476Z,54.1
2022-11-01T13:49:09.714Z,52
2022-11-01T13:50:25.960Z,52.5
2022-11-01T13:51:42.200Z,53.4
2022-11-01T13:52:58.432Z,54.1
2022-11-01T13:54:14.663Z,52.8
2022-11-01T13:55:30.913Z,52
2022-11-01T13:56:47.166Z,51.5
2022-11-01T13:58:03.391Z,53.3
2022-11-01T13:59:18.656Z,51.7
2022-11-01T14:00:34.871Z,50.9
2022-11-01T14:01:51.124Z,49.9
2022-11-01T14:03:07.378Z,51.8
2022-11-01T14:04:23.613Z,54.4
2022-11-01T14:05:39.842Z,52.8
2022-11-01T14:06:56.072Z,51.8
2022-11-01T14:08:11.326Z,53.8
2022-11-01T14:09:26.590Z,51.5
2022-11-01T14:10:42.841Z,53.6
2022-11-01T14:11:59.073Z,53.3
2022-11-01T14:13:15.326Z,54.6
2022-11-01T14:14:31.552Z,53.3
2022-11-01T14:15:47.776Z,52.6
2022-11-01T14:17:04.033Z,56.7
2022-11-01T14:18:20.000Z,54.9
2022-11-01T14:19:36.504Z,54.1
2022-11-01T14:20:52.763Z,56.2
2022-11-01T14:22:08.012Z,55.1
2022-11-01T14:23:24.272Z,63.1
2022-11-01T14:24:40.502Z,61.5
2022-11-01T14:25:56.717Z,60.4
2022-11-01T14:27:12.956Z,55.5
2022-11-01T14:28:29.225Z,60.5
2022-11-01T14:29:45.445Z,60.2
2022-11-01T14:31:01.696Z,57
2022-11-01T14:32:17.937Z,54.3
2022-11-01T14:33:34.174Z,59.1
2022-11-01T14:34:49.426Z,59.9
2022-11-01T14:36:04.677Z,61.5
2022-11-01T14:37:19.940Z,58.8
2022-11-01T14:38:35.196Z,60.4
2022-11-01T14:39:50.454Z,61
2022-11-01T14:41:05.725Z,60.4
2022-11-01T14:42:21.950Z,60.1
2022-11-01T14:43:38.203Z,60.4
2022-11-01T14:44:54.419Z,59.9
2022-11-01T14:46:10.664Z,56.7
2022-11-01T14:47:26.919Z,57.2
2022-11-01T14:48:43.143Z,55.9
2022-11-01T14:49:59.373Z,57.8
2022-11-01T14:51:15.624Z,57.6
2022-11-01T14:52:31.867Z,58.4
2022-11-01T14:53:48.102Z,60.5
2022-11-01T14:55:04.323Z,61.2
2022-11-01T14:56:20.577Z,55.1
2022-11-01T14:57:35.823Z,57.5
2022-11-01T14:58:52.080Z,59.1
2022-11-01T15:00:08.315Z,58.4
2022-11-01T15:01:24.542Z,60.2
2022-11-01T15:02:40.791Z,57.2
2022-11-01T15:03:57.030Z,58.4
2022-11-01T15:05:13.264Z,60.4
2022-11-01T15:06:28.513Z,58.1
2022-11-01T15:07:43.781Z,57.5
2022-11-01T15:09:00.017Z,55.5
2022-11-01T15:10:16.268Z,58.8
2022-11-01T15:11:32.515Z,56.3
2022-11-01T15:12:48.743Z,53.9
2022-11-01T15:14:05.000Z,58.9
2022-11-01T15:15:21.229Z,58.9
2022-11-01T15:16:37.450Z,58.3
2022-11-01T15:17:53.687Z,55.5
2022-11-01T15:19:09.950Z,58.9
2022-11-01T15:20:26.195Z,57.2
2022-11-01T15:21:42.416Z,57.5
2022-11-01T15:22:58.674Z,56
2022-11-01T15:24:13.910Z,55.5
2022-11-01T15:25:30.163Z,58
2022-11-01T15:26:46.410Z,56.5
2022-11-01T15:28:02.645Z,57.6
2022-11-01T15:29:18.884Z,56.2
2022-11-01T15:30:35.116Z,55.5
2022-11-01T15:31:51.333Z,55.7
2022-11-01T15:33:06.623Z,57.3
2022-11-01T15:34:21.866Z,56.5
2022-11-01T15:35:38.094Z,56
2022-11-01T15:36:54.361Z,54.6
2022-11-01T15:38:10.597Z,56.3
2022-11-01T15:39:26.806Z,56.5
2022-11-01T15:40:43.054Z,56
2022-11-01T15:41:59.310Z,57.2
2022-11-01T15:43:15.529Z,56.5
2022-11-01T15:44:31.787Z,56.8
2022-11-01T15:45:48.000Z,57
2022-11-01T15:47:04.262Z,57.2
2022-11-01T15:48:20.494Z,56.3
2022-11-01T15:49:36.749Z,57.2
2022-11-01T15:50:52.003Z,57.3
2022-11-01T15:52:08.232Z,56.7
2022-11-01T15:53:24.482Z,55.9
2022-11-01T15:54:40.716Z,55.7
2022-11-01T15:55:56.935Z,57.6
2022-11-01T15:57:13.199Z,57.6
2022-11-01T15:58:29.416Z,57.3
2022-11-01T15:59:44.702Z,58.1
2022-11-01T16:00:59.927Z,56.3
2022-11-01T16:02:16.185Z,59.2
2022-11-01T16:03:32.412Z,59.7
2022-11-01T16:04:48.676Z,59.7
2022-11-01T16:06:04.888Z,59.6
2022-11-01T16:07:21.152Z,58.8
2022-11-01T16:08:37.390Z,58.9
2022-11-01T16:09:53.636Z,58.6
2022-11-01T16:11:09.849Z,58.1
2022-11-01T16:12:26.099Z,56.7
2022-11-01T16:13:42.343Z,56.7
2022-11-01T16:14:58.579Z,57.8
2022-11-01T16:16:14.825Z,58.1
2022-11-01T16:17:30.072Z,61.2
2022-11-01T16:18:46.321Z,59.7
2022-11-01T16:20:02.553Z,59.6
2022-11-01T16:21:18.776Z,57.6
2022-11-01T16:22:35.038Z,58
2022-11-01T16:23:51.254Z,57.6
2022-11-01T16:25:07.499Z,57.2
2022-11-01T16:26:23.731Z,56.5
2022-11-01T16:27:39.019Z,58.1
2022-11-01T16:28:54.280Z,57
2022-11-01T16:30:09.539Z,56.7
2022-11-01T16:31:24.782Z,58.1
2022-11-01T16:32:40.026Z,56.3
2022-11-01T16:33:55.280Z,56.7
2022-11-01T16:35:10.558Z,58.4
2022-11-01T16:36:25.812Z,57.5
2022-11-01T16:37:42.062Z,55.4
2022-11-01T16:38:58.285Z,58.1
2022-11-01T16:40:14.529Z,58.1
2022-11-01T16:41:30.761Z,58.4
2022-11-01T16:42:47.007Z,56
2022-11-01T16:44:03.257Z,58.1
2022-11-01T16:45:19.480Z,56.5
2022-11-01T16:46:35.716Z,55.5
2022-11-01T16:47:51.950Z,57.6
2022-11-01T16:49:08.204Z,58.9
2022-11-01T16:50:24.436Z,58
2022-11-01T16:51:40.673Z,58.4
2022-11-01T16:52:55.931Z,56.8
2022-11-01T16:54:12.162Z,56.2
2022-11-01T16:55:28.407Z,56.7
2022-11-01T16:56:44.643Z,57
2022-11-01T16:58:00.884Z,57.8
2022-11-01T16:59:17.126Z,57
2022-11-01T17:00:33.365Z,55.9
2022-11-01T17:01:48.638Z,56.7
2022-11-01T17:03:03.891Z,55.5
2022-11-01T17:04:20.127Z,57.8
2022-11-01T17:05:36.361Z,56.3
2022-11-01T17:06:52.605Z,57.3
2022-11-01T17:08:08.847Z,56.7
2022-11-01T17:09:25.080Z,58.4
2022-11-01T17:10:41.319Z,56.5
2022-11-01T17:11:57.557Z,57.3
2022-11-01T17:13:13.792Z,56.2